sensor_id;sensor_type;location;lat;lon;timestamp;P1;durP1;ratioP1;P2;durP2;ratioP2
4047;SDS011;2038;51.728;6.674;2023-11-19T00:00:46;12.37;;;9.77;;
4047;SDS011;2038;51.728;6.674;2023-11-19T00:03:13;12.87;;;11.17;;
4047;SDS011;2038;51.728;6.674;2023-11-19T00:05:39;11.20;;;9.53;;
4047;SDS011;2038;51.728;6.674;2023-11-19T00:08:06;13.47;;;10.70;;
4047;SDS011;2038;51.728;6.674;2023-11-19T00:10:33;13.37;;;11.37;;
4047;SDS011;2038;51.728;6.674;2023-11-19T00:13:00;12.23;;;10.97;;
4047;SDS011;2038;51.728;6.674;2023-11-19T00:15:27;16.50;;;11.00;;
4047;SDS011;2038;51.728;6.674;2023-11-19T00:17:54;14.13;;;11.63;;
4047;SDS011;2038;51.728;6.674;2023-11-19T00:20:20;16.33;;;11.77;;
4047;SDS011;2038;51.728;6.674;2023-11-19T00:22:48;14.87;;;11.23;;
4047;SDS011;2038;51.728;6.674;2023-11-19T00:25:18;16.00;;;13.13;;
4047;SDS011;2038;51.728;6.674;2023-11-19T00:27:46;16.40;;;13.10;;
4047;SDS011;2038;51.728;6.674;2023-11-19T00:30:13;16.03;;;14.17;;
4047;SDS011;2038;51.728;6.674;2023-11-19T00:32:40;14.70;;;12.43;;
4047;SDS011;2038;51.728;6.674;2023-11-19T00:35:06;16.57;;;14.10;;
4047;SDS011;2038;51.728;6.674;2023-11-19T00:37:35;17.30;;;15.03;;
4047;SDS011;2038;51.728;6.674;2023-11-19T00:40:01;19.90;;;15.27;;
4047;SDS011;2038;51.728;6.674;2023-11-19T00:42:30;19.50;;;15.90;;
4047;SDS011;2038;51.728;6.674;2023-11-19T00:44:56;27.20;;;16.40;;
4047;SDS011;2038;51.728;6.674;2023-11-19T00:47:23;20.10;;;15.90;;
4047;SDS011;2038;51.728;6.674;2023-11-19T00:49:50;19.93;;;15.57;;
4047;SDS011;2038;51.728;6.674;2023-11-19T00:52:16;20.37;;;16.07;;
4047;SDS011;2038;51.728;6.674;2023-11-19T00:54:43;17.63;;;15.40;;
4047;SDS011;2038;51.728;6.674;2023-11-19T00:57:10;19.50;;;15.97;;
4047;SDS011;2038;51.728;6.674;2023-11-19T00:59:36;19.00;;;16.03;;
4047;SDS011;2038;51.728;6.674;2023-11-19T01:02:03;17.80;;;15.63;;
4047;SDS011;2038;51.728;6.674;2023-11-19T01:04:34;18.83;;;16.23;;
4047;SDS011;2038;51.728;6.674;2023-11-19T01:07:02;19.80;;;16.70;;
4047;SDS011;2038;51.728;6.674;2023-11-19T01:09:30;21.80;;;17.20;;
4047;SDS011;2038;51.728;6.674;2023-11-19T01:11:57;18.10;;;15.50;;
4047;SDS011;2038;51.728;6.674;2023-11-19T01:14:25;22.07;;;15.20;;
4047;SDS011;2038;51.728;6.674;2023-11-19T01:16:52;23.00;;;15.87;;
4047;SDS011;2038;51.728;6.674;2023-11-19T01:19:19;20.13;;;15.90;;
4047;SDS011;2038;51.728;6.674;2023-11-19T01:21:49;17.57;;;13.90;;
4047;SDS011;2038;51.728;6.674;2023-11-19T01:24:16;20.50;;;15.70;;
4047;SDS011;2038;51.728;6.674;2023-11-19T01:26:43;22.20;;;15.53;;
4047;SDS011;2038;51.728;6.674;2023-11-19T01:29:13;17.87;;;14.70;;
4047;SDS011;2038;51.728;6.674;2023-11-19T01:31:43;18.83;;;13.83;;
4047;SDS011;2038;51.728;6.674;2023-11-19T01:34:12;19.13;;;13.20;;
4047;SDS011;2038;51.728;6.674;2023-11-19T01:36:38;20.40;;;13.17;;
4047;SDS011;2038;51.728;6.674;2023-11-19T01:39:04;23.40;;;12.20;;
4047;SDS011;2038;51.728;6.674;2023-11-19T01:41:37;13.70;;;12.00;;
4047;SDS011;2038;51.728;6.674;2023-11-19T01:44:05;16.30;;;11.63;;
4047;SDS011;2038;51.728;6.674;2023-11-19T01:46:32;15.43;;;11.43;;
4047;SDS011;2038;51.728;6.674;2023-11-19T01:49:00;13.67;;;11.20;;
4047;SDS011;2038;51.728;6.674;2023-11-19T01:51:27;12.10;;;9.60;;
4047;SDS011;2038;51.728;6.674;2023-11-19T01:53:54;15.80;;;10.00;;
4047;SDS011;2038;51.728;6.674;2023-11-19T01:56:22;13.43;;;9.83;;
4047;SDS011;2038;51.728;6.674;2023-11-19T01:58:51;11.30;;;9.17;;
4047;SDS011;2038;51.728;6.674;2023-11-19T02:01:20;15.60;;;11.27;;
4047;SDS011;2038;51.728;6.674;2023-11-19T02:03:48;11.30;;;10.20;;
4047;SDS011;2038;51.728;6.674;2023-11-19T02:06:14;11.23;;;9.80;;
4047;SDS011;2038;51.728;6.674;2023-11-19T02:08:41;10.67;;;9.53;;
4047;SDS011;2038;51.728;6.674;2023-11-19T02:11:08;13.50;;;10.43;;
4047;SDS011;2038;51.728;6.674;2023-11-19T02:13:37;14.43;;;9.80;;
4047;SDS011;2038;51.728;6.674;2023-11-19T02:16:03;11.87;;;9.07;;
4047;SDS011;2038;51.728;6.674;2023-11-19T02:18:31;12.73;;;8.90;;
4047;SDS011;2038;51.728;6.674;2023-11-19T02:20:58;13.30;;;9.47;;
4047;SDS011;2038;51.728;6.674;2023-11-19T02:23:26;14.77;;;8.60;;
4047;SDS011;2038;51.728;6.674;2023-11-19T02:26:05;13.93;;;9.10;;
4047;SDS011;2038;51.728;6.674;2023-11-19T02:28:58;9.73;;;7.53;;
4047;SDS011;2038;51.728;6.674;2023-11-19T02:31:25;14.70;;;7.13;;
4047;SDS011;2038;51.728;6.674;2023-11-19T02:33:52;17.37;;;8.17;;
4047;SDS011;2038;51.728;6.674;2023-11-19T02:36:18;10.93;;;7.47;;
4047;SDS011;2038;51.728;6.674;2023-11-19T02:38:46;13.00;;;7.47;;
4047;SDS011;2038;51.728;6.674;2023-11-19T02:41:13;16.43;;;7.73;;
4047;SDS011;2038;51.728;6.674;2023-11-19T02:43:39;12.03;;;7.10;;
4047;SDS011;2038;51.728;6.674;2023-11-19T02:46:06;13.57;;;6.57;;
4047;SDS011;2038;51.728;6.674;2023-11-19T02:48:36;23.53;;;7.20;;
4047;SDS011;2038;51.728;6.674;2023-11-19T02:51:03;17.17;;;7.07;;
4047;SDS011;2038;51.728;6.674;2023-11-19T02:53:34;14.33;;;6.23;;
4047;SDS011;2038;51.728;6.674;2023-11-19T02:56:02;21.53;;;6.50;;
4047;SDS011;2038;51.728;6.674;2023-11-19T02:58:50;12.77;;;6.03;;
4047;SDS011;2038;51.728;6.674;2023-11-19T03:01:23;19.30;;;7.17;;
4047;SDS011;2038;51.728;6.674;2023-11-19T03:03:59;14.10;;;6.40;;
4047;SDS011;2038;51.728;6.674;2023-11-19T03:06:27;13.43;;;6.10;;
4047;SDS011;2038;51.728;6.674;2023-11-19T03:08:54;11.27;;;5.23;;
4047;SDS011;2038;51.728;6.674;2023-11-19T03:11:20;12.70;;;5.30;;
4047;SDS011;2038;51.728;6.674;2023-11-19T03:13:46;11.30;;;5.93;;
4047;SDS011;2038;51.728;6.674;2023-11-19T03:16:13;14.67;;;6.47;;
4047;SDS011;2038;51.728;6.674;2023-11-19T03:18:39;24.90;;;6.50;;
4047;SDS011;2038;51.728;6.674;2023-11-19T03:21:06;23.63;;;6.63;;
4047;SDS011;2038;51.728;6.674;2023-11-19T03:23:35;19.93;;;5.77;;
4047;SDS011;2038;51.728;6.674;2023-11-19T03:26:04;28.43;;;5.87;;
4047;SDS011;2038;51.728;6.674;2023-11-19T03:28:31;19.83;;;6.20;;
4047;SDS011;2038;51.728;6.674;2023-11-19T03:30:57;19.20;;;5.80;;
4047;SDS011;2038;51.728;6.674;2023-11-19T03:33:24;19.17;;;5.20;;
4047;SDS011;2038;51.728;6.674;2023-11-19T03:35:52;14.70;;;7.27;;
4047;SDS011;2038;51.728;6.674;2023-11-19T03:38:21;18.13;;;6.30;;
4047;SDS011;2038;51.728;6.674;2023-11-19T03:40:48;27.70;;;7.60;;
4047;SDS011;2038;51.728;6.674;2023-11-19T03:43:14;23.63;;;5.83;;
4047;SDS011;2038;51.728;6.674;2023-11-19T03:45:41;22.67;;;6.97;;
4047;SDS011;2038;51.728;6.674;2023-11-19T03:48:07;17.93;;;7.63;;
4047;SDS011;2038;51.728;6.674;2023-11-19T03:50:33;23.00;;;6.20;;
4047;SDS011;2038;51.728;6.674;2023-11-19T03:53:00;26.10;;;7.00;;
4047;SDS011;2038;51.728;6.674;2023-11-19T03:55:27;20.23;;;7.90;;
4047;SDS011;2038;51.728;6.674;2023-11-19T03:57:54;27.80;;;7.80;;
4047;SDS011;2038;51.728;6.674;2023-11-19T04:00:20;19.43;;;6.77;;
4047;SDS011;2038;51.728;6.674;2023-11-19T04:02:46;21.67;;;6.47;;
4047;SDS011;2038;51.728;6.674;2023-11-19T04:05:13;19.20;;;7.63;;
4047;SDS011;2038;51.728;6.674;2023-11-19T04:07:39;25.97;;;7.20;;
4047;SDS011;2038;51.728;6.674;2023-11-19T04:10:05;24.33;;;8.40;;
4047;SDS011;2038;51.728;6.674;2023-11-19T04:12:32;25.30;;;7.60;;
4047;SDS011;2038;51.728;6.674;2023-11-19T04:14:58;29.80;;;8.17;;
4047;SDS011;2038;51.728;6.674;2023-11-19T04:17:24;35.47;;;8.90;;
4047;SDS011;2038;51.728;6.674;2023-11-19T04:19:51;16.63;;;8.10;;
4047;SDS011;2038;51.728;6.674;2023-11-19T04:22:17;32.47;;;8.40;;
4047;SDS011;2038;51.728;6.674;2023-11-19T04:24:43;38.30;;;9.40;;
4047;SDS011;2038;51.728;6.674;2023-11-19T04:27:10;27.07;;;6.50;;
4047;SDS011;2038;51.728;6.674;2023-11-19T04:29:36;22.73;;;8.17;;
4047;SDS011;2038;51.728;6.674;2023-11-19T04:32:03;26.50;;;7.47;;
4047;SDS011;2038;51.728;6.674;2023-11-19T04:34:30;21.87;;;8.00;;
4047;SDS011;2038;51.728;6.674;2023-11-19T04:36:56;28.80;;;7.03;;
4047;SDS011;2038;51.728;6.674;2023-11-19T04:39:25;20.60;;;8.07;;
4047;SDS011;2038;51.728;6.674;2023-11-19T04:41:52;36.80;;;7.63;;
4047;SDS011;2038;51.728;6.674;2023-11-19T04:44:18;33.17;;;6.50;;
4047;SDS011;2038;51.728;6.674;2023-11-19T04:46:45;22.40;;;6.90;;
4047;SDS011;2038;51.728;6.674;2023-11-19T04:49:12;46.37;;;6.63;;
4047;SDS011;2038;51.728;6.674;2023-11-19T04:51:43;36.03;;;5.80;;
4047;SDS011;2038;51.728;6.674;2023-11-19T04:54:12;19.53;;;5.30;;
4047;SDS011;2038;51.728;6.674;2023-11-19T04:56:39;37.37;;;6.50;;
4047;SDS011;2038;51.728;6.674;2023-11-19T04:59:05;24.17;;;6.00;;
4047;SDS011;2038;51.728;6.674;2023-11-19T05:01:33;29.57;;;7.80;;
4047;SDS011;2038;51.728;6.674;2023-11-19T05:04:01;31.00;;;6.80;;
4047;SDS011;2038;51.728;6.674;2023-11-19T05:06:30;36.90;;;6.43;;
4047;SDS011;2038;51.728;6.674;2023-11-19T05:08:58;48.97;;;8.50;;
4047;SDS011;2038;51.728;6.674;2023-11-19T05:11:34;34.70;;;7.40;;
4047;SDS011;2038;51.728;6.674;2023-11-19T05:14:02;23.47;;;5.63;;
4047;SDS011;2038;51.728;6.674;2023-11-19T05:16:31;33.43;;;6.60;;
4047;SDS011;2038;51.728;6.674;2023-11-19T05:18:57;28.77;;;7.23;;
4047;SDS011;2038;51.728;6.674;2023-11-19T05:21:23;22.77;;;6.63;;
4047;SDS011;2038;51.728;6.674;2023-11-19T05:23:50;37.17;;;8.30;;
4047;SDS011;2038;51.728;6.674;2023-11-19T05:26:19;29.07;;;6.70;;
4047;SDS011;2038;51.728;6.674;2023-11-19T05:28:48;35.30;;;7.73;;
4047;SDS011;2038;51.728;6.674;2023-11-19T05:31:15;26.17;;;6.67;;
4047;SDS011;2038;51.728;6.674;2023-11-19T05:33:43;38.90;;;7.00;;
4047;SDS011;2038;51.728;6.674;2023-11-19T05:36:10;23.00;;;7.10;;
4047;SDS011;2038;51.728;6.674;2023-11-19T05:38:37;40.13;;;9.17;;
4047;SDS011;2038;51.728;6.674;2023-11-19T05:41:04;41.43;;;8.10;;
4047;SDS011;2038;51.728;6.674;2023-11-19T05:43:31;39.10;;;6.27;;
4047;SDS011;2038;51.728;6.674;2023-11-19T05:45:57;23.53;;;8.20;;
4047;SDS011;2038;51.728;6.674;2023-11-19T05:48:25;53.07;;;9.37;;
4047;SDS011;2038;51.728;6.674;2023-11-19T05:50:52;32.07;;;8.60;;
4047;SDS011;2038;51.728;6.674;2023-11-19T05:53:19;34.03;;;8.33;;
4047;SDS011;2038;51.728;6.674;2023-11-19T05:55:46;34.33;;;8.10;;
4047;SDS011;2038;51.728;6.674;2023-11-19T05:58:19;37.70;;;8.87;;
4047;SDS011;2038;51.728;6.674;2023-11-19T06:00:56;31.17;;;8.20;;
4047;SDS011;2038;51.728;6.674;2023-11-19T06:03:25;35.60;;;9.57;;
4047;SDS011;2038;51.728;6.674;2023-11-19T06:05:52;31.27;;;8.13;;
4047;SDS011;2038;51.728;6.674;2023-11-19T06:08:21;34.10;;;8.60;;
4047;SDS011;2038;51.728;6.674;2023-11-19T06:10:48;35.43;;;7.70;;
4047;SDS011;2038;51.728;6.674;2023-11-19T06:13:15;33.10;;;7.57;;
4047;SDS011;2038;51.728;6.674;2023-11-19T06:15:42;42.37;;;9.00;;
4047;SDS011;2038;51.728;6.674;2023-11-19T06:18:09;26.43;;;7.87;;
4047;SDS011;2038;51.728;6.674;2023-11-19T06:20:37;33.30;;;8.30;;
4047;SDS011;2038;51.728;6.674;2023-11-19T06:23:03;26.83;;;7.10;;
4047;SDS011;2038;51.728;6.674;2023-11-19T06:25:30;36.57;;;7.93;;
4047;SDS011;2038;51.728;6.674;2023-11-19T06:27:56;39.90;;;8.67;;
4047;SDS011;2038;51.728;6.674;2023-11-19T06:30:22;29.57;;;8.00;;
4047;SDS011;2038;51.728;6.674;2023-11-19T06:32:48;35.90;;;7.10;;
4047;SDS011;2038;51.728;6.674;2023-11-19T06:35:14;28.50;;;6.80;;
4047;SDS011;2038;51.728;6.674;2023-11-19T06:37:41;33.13;;;7.20;;
4047;SDS011;2038;51.728;6.674;2023-11-19T06:40:08;24.73;;;6.80;;
4047;SDS011;2038;51.728;6.674;2023-11-19T06:42:35;23.63;;;6.67;;
4047;SDS011;2038;51.728;6.674;2023-11-19T06:45:02;69.97;;;11.33;;
4047;SDS011;2038;51.728;6.674;2023-11-19T06:47:28;31.30;;;7.77;;
4047;SDS011;2038;51.728;6.674;2023-11-19T06:49:55;34.70;;;7.83;;
4047;SDS011;2038;51.728;6.674;2023-11-19T06:52:21;29.47;;;9.57;;
4047;SDS011;2038;51.728;6.674;2023-11-19T06:54:48;35.63;;;9.30;;
4047;SDS011;2038;51.728;6.674;2023-11-19T06:57:14;38.40;;;9.10;;
4047;SDS011;2038;51.728;6.674;2023-11-19T06:59:41;33.43;;;6.77;;
4047;SDS011;2038;51.728;6.674;2023-11-19T07:02:08;36.70;;;7.63;;
4047;SDS011;2038;51.728;6.674;2023-11-19T07:04:34;35.93;;;7.33;;
4047;SDS011;2038;51.728;6.674;2023-11-19T07:07:00;50.27;;;9.17;;
4047;SDS011;2038;51.728;6.674;2023-11-19T07:09:27;36.07;;;8.73;;
4047;SDS011;2038;51.728;6.674;2023-11-19T07:11:53;31.27;;;7.03;;
4047;SDS011;2038;51.728;6.674;2023-11-19T07:14:19;31.40;;;7.70;;
4047;SDS011;2038;51.728;6.674;2023-11-19T07:16:46;25.33;;;7.13;;
4047;SDS011;2038;51.728;6.674;2023-11-19T07:19:12;33.63;;;7.03;;
4047;SDS011;2038;51.728;6.674;2023-11-19T07:21:41;39.57;;;7.97;;
4047;SDS011;2038;51.728;6.674;2023-11-19T07:24:11;23.87;;;7.93;;
4047;SDS011;2038;51.728;6.674;2023-11-19T07:26:45;26.77;;;6.70;;
4047;SDS011;2038;51.728;6.674;2023-11-19T07:29:12;34.30;;;7.97;;
4047;SDS011;2038;51.728;6.674;2023-11-19T07:31:42;37.27;;;6.70;;
4047;SDS011;2038;51.728;6.674;2023-11-19T07:34:09;37.33;;;6.50;;
4047;SDS011;2038;51.728;6.674;2023-11-19T07:36:36;28.00;;;7.73;;
4047;SDS011;2038;51.728;6.674;2023-11-19T07:39:03;45.03;;;8.50;;
4047;SDS011;2038;51.728;6.674;2023-11-19T07:41:30;43.80;;;8.60;;
4047;SDS011;2038;51.728;6.674;2023-11-19T07:43:57;53.70;;;8.53;;
4047;SDS011;2038;51.728;6.674;2023-11-19T07:46:23;36.93;;;8.37;;
4047;SDS011;2038;51.728;6.674;2023-11-19T07:48:50;30.47;;;7.30;;
4047;SDS011;2038;51.728;6.674;2023-11-19T07:51:17;27.77;;;6.30;;
4047;SDS011;2038;51.728;6.674;2023-11-19T07:53:43;32.00;;;6.00;;
4047;SDS011;2038;51.728;6.674;2023-11-19T07:56:09;42.87;;;8.43;;
4047;SDS011;2038;51.728;6.674;2023-11-19T07:58:36;26.50;;;6.53;;
4047;SDS011;2038;51.728;6.674;2023-11-19T08:01:02;36.87;;;9.40;;
4047;SDS011;2038;51.728;6.674;2023-11-19T08:03:28;39.83;;;8.30;;
4047;SDS011;2038;51.728;6.674;2023-11-19T08:05:55;36.40;;;7.73;;
4047;SDS011;2038;51.728;6.674;2023-11-19T08:08:24;33.67;;;7.80;;
4047;SDS011;2038;51.728;6.674;2023-11-19T08:10:50;33.87;;;7.57;;
4047;SDS011;2038;51.728;6.674;2023-11-19T08:13:18;36.90;;;8.20;;
4047;SDS011;2038;51.728;6.674;2023-11-19T08:15:45;48.13;;;8.30;;
4047;SDS011;2038;51.728;6.674;2023-11-19T08:18:11;43.43;;;8.60;;
4047;SDS011;2038;51.728;6.674;2023-11-19T08:20:38;33.77;;;7.23;;
4047;SDS011;2038;51.728;6.674;2023-11-19T08:23:04;35.70;;;7.50;;
4047;SDS011;2038;51.728;6.674;2023-11-19T08:25:31;41.97;;;8.40;;
4047;SDS011;2038;51.728;6.674;2023-11-19T08:27:58;31.50;;;7.23;;
4047;SDS011;2038;51.728;6.674;2023-11-19T08:30:25;28.03;;;7.57;;
4047;SDS011;2038;51.728;6.674;2023-11-19T08:32:52;44.07;;;8.33;;
4047;SDS011;2038;51.728;6.674;2023-11-19T08:35:18;41.13;;;7.13;;
4047;SDS011;2038;51.728;6.674;2023-11-19T08:37:44;46.67;;;7.30;;
4047;SDS011;2038;51.728;6.674;2023-11-19T08:40:11;56.00;;;8.50;;
4047;SDS011;2038;51.728;6.674;2023-11-19T08:42:40;34.93;;;6.90;;
4047;SDS011;2038;51.728;6.674;2023-11-19T08:45:06;29.90;;;7.23;;
4047;SDS011;2038;51.728;6.674;2023-11-19T08:47:37;35.30;;;7.70;;
4047;SDS011;2038;51.728;6.674;2023-11-19T08:50:05;43.50;;;8.30;;
4047;SDS011;2038;51.728;6.674;2023-11-19T08:52:32;44.83;;;8.90;;
4047;SDS011;2038;51.728;6.674;2023-11-19T08:54:58;39.43;;;8.53;;
4047;SDS011;2038;51.728;6.674;2023-11-19T08:57:24;37.97;;;9.83;;
4047;SDS011;2038;51.728;6.674;2023-11-19T08:59:50;37.83;;;8.60;;
4047;SDS011;2038;51.728;6.674;2023-11-19T09:02:16;38.53;;;7.23;;
4047;SDS011;2038;51.728;6.674;2023-11-19T09:04:43;35.70;;;8.23;;
4047;SDS011;2038;51.728;6.674;2023-11-19T09:07:09;46.63;;;8.80;;
4047;SDS011;2038;51.728;6.674;2023-11-19T09:09:36;25.87;;;7.13;;
4047;SDS011;2038;51.728;6.674;2023-11-19T09:12:02;30.60;;;7.50;;
4047;SDS011;2038;51.728;6.674;2023-11-19T09:14:29;27.00;;;7.10;;
4047;SDS011;2038;51.728;6.674;2023-11-19T09:16:56;42.23;;;8.20;;
4047;SDS011;2038;51.728;6.674;2023-11-19T09:19:23;47.07;;;8.67;;
4047;SDS011;2038;51.728;6.674;2023-11-19T09:21:51;42.47;;;8.57;;
4047;SDS011;2038;51.728;6.674;2023-11-19T09:24:18;28.70;;;7.40;;
4047;SDS011;2038;51.728;6.674;2023-11-19T09:26:44;28.80;;;8.10;;
4047;SDS011;2038;51.728;6.674;2023-11-19T09:29:10;38.30;;;7.47;;
4047;SDS011;2038;51.728;6.674;2023-11-19T09:31:39;41.27;;;6.80;;
4047;SDS011;2038;51.728;6.674;2023-11-19T09:34:05;37.20;;;9.37;;
4047;SDS011;2038;51.728;6.674;2023-11-19T09:36:31;44.13;;;9.40;;
4047;SDS011;2038;51.728;6.674;2023-11-19T09:38:57;36.53;;;6.60;;
4047;SDS011;2038;51.728;6.674;2023-11-19T09:41:26;27.60;;;7.07;;
4047;SDS011;2038;51.728;6.674;2023-11-19T09:43:53;25.63;;;6.10;;
4047;SDS011;2038;51.728;6.674;2023-11-19T09:46:19;44.03;;;8.20;;
4047;SDS011;2038;51.728;6.674;2023-11-19T09:48:49;39.37;;;7.07;;
4047;SDS011;2038;51.728;6.674;2023-11-19T09:51:19;41.20;;;7.50;;
4047;SDS011;2038;51.728;6.674;2023-11-19T09:53:47;30.47;;;7.43;;
4047;SDS011;2038;51.728;6.674;2023-11-19T09:56:14;36.57;;;6.43;;
4047;SDS011;2038;51.728;6.674;2023-11-19T09:58:42;36.33;;;6.80;;
4047;SDS011;2038;51.728;6.674;2023-11-19T10:01:08;27.87;;;6.27;;
4047;SDS011;2038;51.728;6.674;2023-11-19T10:03:37;31.63;;;8.57;;
4047;SDS011;2038;51.728;6.674;2023-11-19T10:06:08;39.97;;;8.23;;
4047;SDS011;2038;51.728;6.674;2023-11-19T10:08:39;26.90;;;8.30;;
4047;SDS011;2038;51.728;6.674;2023-11-19T10:11:07;42.20;;;8.00;;
4047;SDS011;2038;51.728;6.674;2023-11-19T10:13:35;31.30;;;5.97;;
4047;SDS011;2038;51.728;6.674;2023-11-19T10:16:12;43.87;;;9.40;;
4047;SDS011;2038;51.728;6.674;2023-11-19T10:18:45;30.73;;;6.50;;
4047;SDS011;2038;51.728;6.674;2023-11-19T10:21:16;35.03;;;8.53;;
4047;SDS011;2038;51.728;6.674;2023-11-19T10:23:53;42.73;;;10.00;;
4047;SDS011;2038;51.728;6.674;2023-11-19T10:26:27;40.33;;;7.80;;
4047;SDS011;2038;51.728;6.674;2023-11-19T10:28:55;29.73;;;8.10;;
4047;SDS011;2038;51.728;6.674;2023-11-19T10:31:21;26.63;;;6.63;;
4047;SDS011;2038;51.728;6.674;2023-11-19T10:33:50;33.60;;;7.27;;
4047;SDS011;2038;51.728;6.674;2023-11-19T10:36:16;34.60;;;9.93;;
4047;SDS011;2038;51.728;6.674;2023-11-19T10:41:28;31.60;;;7.30;;
4047;SDS011;2038;51.728;6.674;2023-11-19T10:43:56;32.73;;;8.70;;
4047;SDS011;2038;51.728;6.674;2023-11-19T10:49:05;33.30;;;7.13;;
4047;SDS011;2038;51.728;6.674;2023-11-19T10:51:35;38.83;;;8.30;;
4047;SDS011;2038;51.728;6.674;2023-11-19T10:54:10;33.83;;;7.30;;
4047;SDS011;2038;51.728;6.674;2023-11-19T10:56:43;36.90;;;7.97;;
4047;SDS011;2038;51.728;6.674;2023-11-19T10:59:15;30.80;;;7.70;;
4047;SDS011;2038;51.728;6.674;2023-11-19T11:01:46;44.73;;;7.20;;
4047;SDS011;2038;51.728;6.674;2023-11-19T11:04:24;49.13;;;7.67;;
4047;SDS011;2038;51.728;6.674;2023-11-19T11:06:56;24.37;;;6.20;;
4047;SDS011;2038;51.728;6.674;2023-11-19T11:09:26;47.13;;;7.47;;
4047;SDS011;2038;51.728;6.674;2023-11-19T11:11:55;34.90;;;6.83;;
4047;SDS011;2038;51.728;6.674;2023-11-19T11:14:24;26.53;;;6.90;;
4047;SDS011;2038;51.728;6.674;2023-11-19T11:16:52;52.80;;;8.40;;
4047;SDS011;2038;51.728;6.674;2023-11-19T11:19:21;29.40;;;7.90;;
4047;SDS011;2038;51.728;6.674;2023-11-19T11:21:52;33.27;;;6.60;;
4047;SDS011;2038;51.728;6.674;2023-11-19T11:36:23;34.43;;;7.10;;
4047;SDS011;2038;51.728;6.674;2023-11-19T11:38:51;26.87;;;6.30;;
4047;SDS011;2038;51.728;6.674;2023-11-19T11:41:19;27.53;;;6.00;;
4047;SDS011;2038;51.728;6.674;2023-11-19T11:43:51;41.80;;;6.77;;
4047;SDS011;2038;51.728;6.674;2023-11-19T11:49:00;33.70;;;6.63;;
4047;SDS011;2038;51.728;6.674;2023-11-19T11:54:11;22.73;;;7.53;;
4047;SDS011;2038;51.728;6.674;2023-11-19T11:56:43;30.80;;;8.07;;
4047;SDS011;2038;51.728;6.674;2023-11-19T11:59:31;29.33;;;7.60;;
4047;SDS011;2038;51.728;6.674;2023-11-19T12:02:10;30.00;;;8.10;;
4047;SDS011;2038;51.728;6.674;2023-11-19T12:04:43;30.00;;;8.90;;
4047;SDS011;2038;51.728;6.674;2023-11-19T12:07:20;23.70;;;7.80;;
4047;SDS011;2038;51.728;6.674;2023-11-19T12:10:07;18.87;;;5.50;;
4047;SDS011;2038;51.728;6.674;2023-11-19T12:12:37;23.17;;;5.90;;
4047;SDS011;2038;51.728;6.674;2023-11-19T12:15:06;29.43;;;7.60;;
4047;SDS011;2038;51.728;6.674;2023-11-19T12:17:37;19.37;;;5.50;;
4047;SDS011;2038;51.728;6.674;2023-11-19T12:20:14;30.97;;;5.83;;
4047;SDS011;2038;51.728;6.674;2023-11-19T12:22:42;40.87;;;8.40;;
4047;SDS011;2038;51.728;6.674;2023-11-19T12:25:10;30.63;;;6.50;;
4047;SDS011;2038;51.728;6.674;2023-11-19T12:27:41;24.50;;;5.80;;
4047;SDS011;2038;51.728;6.674;2023-11-19T12:30:10;19.50;;;5.07;;
4047;SDS011;2038;51.728;6.674;2023-11-19T12:32:46;29.63;;;7.73;;
4047;SDS011;2038;51.728;6.674;2023-11-19T12:35:12;25.87;;;5.27;;
4047;SDS011;2038;51.728;6.674;2023-11-19T12:37:42;29.93;;;6.60;;
4047;SDS011;2038;51.728;6.674;2023-11-19T12:40:20;22.30;;;6.57;;
4047;SDS011;2038;51.728;6.674;2023-11-19T12:42:49;26.57;;;5.90;;
4047;SDS011;2038;51.728;6.674;2023-11-19T12:45:20;25.60;;;5.40;;
4047;SDS011;2038;51.728;6.674;2023-11-19T12:47:48;26.30;;;6.10;;
4047;SDS011;2038;51.728;6.674;2023-11-19T12:50:17;20.50;;;5.30;;
4047;SDS011;2038;51.728;6.674;2023-11-19T12:52:54;27.80;;;5.33;;
4047;SDS011;2038;51.728;6.674;2023-11-19T12:55:28;30.30;;;6.00;;
4047;SDS011;2038;51.728;6.674;2023-11-19T12:57:57;33.50;;;6.80;;
4047;SDS011;2038;51.728;6.674;2023-11-19T13:00:24;31.43;;;6.43;;
4047;SDS011;2038;51.728;6.674;2023-11-19T13:02:53;29.43;;;5.90;;
4047;SDS011;2038;51.728;6.674;2023-11-19T13:08:03;24.80;;;6.17;;
4047;SDS011;2038;51.728;6.674;2023-11-19T13:10:32;26.53;;;6.37;;
4047;SDS011;2038;51.728;6.674;2023-11-19T13:13:20;29.00;;;5.33;;
4047;SDS011;2038;51.728;6.674;2023-11-19T13:15:47;24.47;;;6.20;;
4047;SDS011;2038;51.728;6.674;2023-11-19T13:18:15;18.77;;;4.07;;
4047;SDS011;2038;51.728;6.674;2023-11-19T13:20:42;34.13;;;6.30;;
4047;SDS011;2038;51.728;6.674;2023-11-19T13:23:08;21.97;;;5.63;;
4047;SDS011;2038;51.728;6.674;2023-11-19T13:25:35;20.40;;;5.00;;
4047;SDS011;2038;51.728;6.674;2023-11-19T13:28:01;22.63;;;5.50;;
4047;SDS011;2038;51.728;6.674;2023-11-19T13:30:28;19.43;;;4.83;;
4047;SDS011;2038;51.728;6.674;2023-11-19T13:32:56;16.80;;;5.73;;
4047;SDS011;2038;51.728;6.674;2023-11-19T13:35:22;32.77;;;8.10;;
4047;SDS011;2038;51.728;6.674;2023-11-19T13:37:48;26.87;;;6.00;;
4047;SDS011;2038;51.728;6.674;2023-11-19T13:40:15;27.47;;;4.90;;
4047;SDS011;2038;51.728;6.674;2023-11-19T13:42:41;32.67;;;5.63;;
4047;SDS011;2038;51.728;6.674;2023-11-19T13:45:09;25.03;;;5.80;;
4047;SDS011;2038;51.728;6.674;2023-11-19T13:47:41;16.90;;;6.10;;
4047;SDS011;2038;51.728;6.674;2023-11-19T13:50:10;20.33;;;6.00;;
4047;SDS011;2038;51.728;6.674;2023-11-19T13:52:38;29.30;;;5.63;;
4047;SDS011;2038;51.728;6.674;2023-11-19T13:55:10;27.50;;;6.77;;
4047;SDS011;2038;51.728;6.674;2023-11-19T13:57:37;32.83;;;6.13;;
4047;SDS011;2038;51.728;6.674;2023-11-19T14:00:05;32.53;;;7.20;;
4047;SDS011;2038;51.728;6.674;2023-11-19T14:02:37;20.10;;;5.60;;
4047;SDS011;2038;51.728;6.674;2023-11-19T14:05:05;27.67;;;6.17;;
4047;SDS011;2038;51.728;6.674;2023-11-19T14:07:33;26.00;;;5.23;;
4047;SDS011;2038;51.728;6.674;2023-11-19T14:09:59;27.87;;;5.40;;
4047;SDS011;2038;51.728;6.674;2023-11-19T14:12:26;29.97;;;5.97;;
4047;SDS011;2038;51.728;6.674;2023-11-19T14:14:52;21.30;;;5.23;;
4047;SDS011;2038;51.728;6.674;2023-11-19T14:17:19;25.60;;;4.77;;
4047;SDS011;2038;51.728;6.674;2023-11-19T14:19:45;26.23;;;5.20;;
4047;SDS011;2038;51.728;6.674;2023-11-19T14:22:12;25.20;;;6.30;;
4047;SDS011;2038;51.728;6.674;2023-11-19T14:24:38;22.93;;;5.93;;
4047;SDS011;2038;51.728;6.674;2023-11-19T14:27:06;26.87;;;7.23;;
4047;SDS011;2038;51.728;6.674;2023-11-19T14:29:33;17.63;;;5.20;;
4047;SDS011;2038;51.728;6.674;2023-11-19T14:32:00;24.00;;;6.03;;
4047;SDS011;2038;51.728;6.674;2023-11-19T14:34:27;19.80;;;5.33;;
4047;SDS011;2038;51.728;6.674;2023-11-19T14:36:57;23.13;;;6.50;;
4047;SDS011;2038;51.728;6.674;2023-11-19T14:39:25;26.63;;;5.60;;
4047;SDS011;2038;51.728;6.674;2023-11-19T14:41:51;19.73;;;6.60;;
4047;SDS011;2038;51.728;6.674;2023-11-19T14:44:18;20.83;;;6.87;;
4047;SDS011;2038;51.728;6.674;2023-11-19T14:46:46;24.07;;;5.23;;
4047;SDS011;2038;51.728;6.674;2023-11-19T14:49:12;22.63;;;7.47;;
4047;SDS011;2038;51.728;6.674;2023-11-19T14:51:39;18.20;;;6.70;;
4047;SDS011;2038;51.728;6.674;2023-11-19T14:54:05;26.67;;;7.10;;
4047;SDS011;2038;51.728;6.674;2023-11-19T14:56:32;26.70;;;6.27;;
4047;SDS011;2038;51.728;6.674;2023-11-19T14:58:58;18.67;;;5.30;;
4047;SDS011;2038;51.728;6.674;2023-11-19T15:01:24;32.30;;;7.40;;
4047;SDS011;2038;51.728;6.674;2023-11-19T15:03:52;28.30;;;7.70;;
4047;SDS011;2038;51.728;6.674;2023-11-19T15:06:18;17.07;;;5.77;;
4047;SDS011;2038;51.728;6.674;2023-11-19T15:08:48;18.63;;;7.80;;
4047;SDS011;2038;51.728;6.674;2023-11-19T15:11:14;16.50;;;6.30;;
4047;SDS011;2038;51.728;6.674;2023-11-19T15:13:40;18.20;;;5.53;;
4047;SDS011;2038;51.728;6.674;2023-11-19T15:16:07;30.37;;;8.00;;
4047;SDS011;2038;51.728;6.674;2023-11-19T15:18:36;24.10;;;5.80;;
4047;SDS011;2038;51.728;6.674;2023-11-19T15:21:03;16.07;;;4.70;;
4047;SDS011;2038;51.728;6.674;2023-11-19T15:23:29;20.23;;;5.83;;
4047;SDS011;2038;51.728;6.674;2023-11-19T15:25:55;22.00;;;6.20;;
4047;SDS011;2038;51.728;6.674;2023-11-19T15:28:22;25.07;;;7.37;;
4047;SDS011;2038;51.728;6.674;2023-11-19T15:30:48;22.27;;;5.80;;